Terminal Aerodrome Forecast
Issued by NWS Albany, NY

Home | Current Version | Previous Version | Text Only | Print | Product List | Glossary On
Versions: 1 2 3 4 5 6 7 8 9 10 11 12 13 14 15 16 17 18 19 20 21 22
000
FTUS41 KALY 292300
TAFALB
TAF
KALB 292330Z 3000/3024 17010KT P6SM BKN060 OVC080
      TEMPO 3000/3003 2SM -SN BR OVC020
     FM300300 17008KT 2SM -SN BR OVC020
     FM300600 17006KT 3/4SM -SN BR VV007
     FM301200 21007KT 3SM -SHSN OVC015
     FM301500 31012G19KT P6SM VCSH BKN035 OVC060=

USA.gov is the U.S. government's official web portal to all federal, state and local government web resources and services.